Pagrindinis puslapis
METAR-TAF:

METAR-TAF

Oro uostai :

Ulan Udė, Rusija

platuma: 51-50N, ilguma: 107-36E, Aukštis: 510 m

Dabartinis oras

Ataskaita buvo paskelbta 14 minutes, ne 14:30 UTC
Vėjas 6 kt iš Šiaurės, svyruoja nuo Šiaurės/Šiaurės Vakarų ir Šiaurės Rytų
Temperatūra 9°C
Drėgmė 57%
Slėgis 1012 hPa
Matomumas 10 km arba daugiau
Išsisklaidę debesys ne aukštis 4300 ft, Liūtiniai kamuoliniai debesys.

METAR: UIUU 291430Z 01003MPS 330V050 9999 SCT043CB 09/01 Q1012 R26/CLRD60 NOSIG RMK QFE715/0953

Laikas: 22:44 (14:44 UTC)

Prognozė

Ataskaita buvo paskelbta 44 minutes, ne 14:00 UTC
Prognozė galioja nuo 29 metu 15 UTC su 30 metu 15 UTC
Vėjas 10 kt iš Šiaurės su gūsio iki 21 kt
Matomumas 10 km arba daugiau
Su prošvaistėmis ne aukštis 4000 ft, Liūtiniai kamuoliniai debesys.
Laikinai
nuo 29 metu 15 UTC su 30 metu 15 UTC
Vėjas 6 kt iš Vakarų su gūsio iki 16 kt

TAF: UIUU 291400Z 2915/3015 35005G11MPS 9999 BKN040CB TEMPO 2915/3015 27003G08MPS

Orai ataskaitas ir orų prognozės (METAR, TAF).

turimą stotys yra geltonos ir raudonos taškus žemėlapyje.

Perkelti pele per norėdami pamatyti stoties vardą.

Tada spustelėkite, norėdami matyti oro stebėjimo ir prognozės.

Norėdami pakeisti žemėlapį: spustelėkite ant žalios mygtukų su juodo kryžiaus žemyn,; žalią mygtuką su brūkšneliu, jei norite nutolinti; arba žalių rodyklių gretimoms žemėlapius.


METAR-TAF: